Time;durP1;ratioP1;P1;durP2;ratioP2;P2;SDS_P1;SDS_P2;PMS_P1;PMS_P2;Temp;Humidity;BMP_temperature;BMP_pressure;BME280_temperature;BME280_humidity;BME280_pressure;Samples;Min_cycle;Max_cycle;Signal;HPM_P1;HPM_P2
2021/05/27 00:00:49;;;;;;;2.47;2.27;;;9.10;99.90;;;10.12;97.11;97957.56;5231577;28;20201;-64
2021/05/27 00:03:22;;;;;;;2.83;2.70;;;9.20;99.90;;;10.18;96.25;97962.16;5235346;28;20193;-63
2021/05/27 00:05:55;;;;;;;2.97;2.87;;;9.30;99.90;;;10.14;96.49;97951.75;5227699;28;20214;-63
2021/05/27 00:08:27;;;;;;;2.77;2.67;;;9.20;99.90;;;10.13;96.15;97964.47;5240876;28;20199;-64
2021/05/27 00:11:00;;;;;;;2.73;2.53;;;9.30;99.90;;;10.11;95.85;97966.91;5237228;28;20201;-64
2021/05/27 00:13:32;;;;;;;3.27;3.07;;;9.30;99.90;;;10.10;96.71;97965.16;5241686;28;20219;-63
2021/05/27 00:16:06;;;;;;;3.00;2.90;;;9.20;99.90;;;10.07;96.49;97964.06;5231832;28;20227;-64
2021/05/27 00:18:38;;;;;;;3.10;2.90;;;9.20;99.90;;;10.13;96.16;97961.91;5228656;28;20189;-64
2021/05/27 00:21:12;;;;;;;3.10;2.90;;;9.30;99.90;;;10.02;96.61;97965.47;5227100;28;20189;-63
2021/05/27 00:23:44;;;;;;;3.37;3.17;;;9.30;99.90;;;10.02;97.04;97965.47;5244926;28;20199;-64
2021/05/27 00:26:17;;;;;;;3.30;3.00;;;9.20;99.90;;;10.01;97.64;97963.69;5228102;28;20229;-64
2021/05/27 00:28:50;;;;;;;2.90;2.70;;;9.20;99.90;;;9.93;98.21;97966.69;5232053;28;20198;-64
2021/05/27 00:31:22;;;;;;;5.37;3.70;;;9.20;99.90;;;9.97;98.50;97972.84;5237277;28;20543;-64
2021/05/27 00:33:55;;;;;;;3.40;3.20;;;9.20;99.90;;;9.93;99.01;97976.00;5244479;28;20199;-64
2021/05/27 00:36:28;;;;;;;3.10;2.90;;;9.20;99.90;;;9.92;98.71;97970.00;5238006;28;20196;-63
2021/05/27 00:39:01;;;;;;;3.97;3.37;;;9.20;99.90;;;9.91;100.00;97962.25;5234447;28;20649;-63
2021/05/27 00:41:33;;;;;;;3.50;3.20;;;9.20;99.90;;;9.89;99.41;97964.72;5247467;28;20193;-63
2021/05/27 00:44:20;;;;;;;3.23;3.03;;;9.10;99.90;;;9.97;100.00;97969.41;5242138;28;20214;-63
2021/05/27 00:46:54;;;;;;;3.60;3.40;;;9.20;99.90;;;10.10;99.50;97969.34;5224870;28;20213;-63
2021/05/27 00:49:28;;;;;;;3.40;3.20;;;9.20;99.90;;;9.98;98.38;97969.50;5232412;28;20208;-63
2021/05/27 00:52:02;;;;;;;3.37;3.17;;;9.20;99.90;;;9.97;99.79;97966.88;5227174;28;20194;-63
2021/05/27 00:54:34;;;;;;;3.10;2.90;;;9.20;99.90;;;9.92;99.06;97970.00;5229786;28;20239;-63
2021/05/27 00:57:13;;;;;;;3.80;3.50;;;9.10;99.90;;;9.97;99.54;97971.97;5239284;28;20564;-63
2021/05/27 00:59:46;;;;;;;3.90;3.58;;;9.20;99.90;;;9.97;99.93;97977.06;5244422;28;20189;-63
2021/05/27 01:02:19;;;;;;;3.45;3.25;;;9.20;99.90;;;9.97;100.00;97974.53;5234925;28;20201;-63
2021/05/27 01:04:51;;;;;;;3.40;3.10;;;9.20;99.90;;;9.94;100.00;97980.31;5229431;28;20213;-63
2021/05/27 01:07:27;;;;;;;3.22;3.03;;;9.20;99.90;;;10.01;100.00;97979.00;5238843;28;20262;-63
2021/05/27 01:10:00;;;;;;;3.57;3.27;;;9.20;99.90;;;10.01;100.00;97969.69;5236502;28;20288;-63
2021/05/27 01:12:33;;;;;;;3.53;3.35;;;9.20;99.90;;;10.03;100.00;97967.22;5228089;28;20262;-63
2021/05/27 01:15:28;;;;;;;3.40;3.20;;;9.20;99.90;;;10.00;100.00;97973.03;5232797;28;20217;-63
2021/05/27 01:18:10;;;;;;;3.60;3.40;;;9.10;99.90;;;10.03;98.96;97972.34;5222185;28;20589;-63
2021/05/27 01:20:45;;;;;;;3.70;3.40;;;9.10;99.90;;;10.01;99.86;97974.78;5223501;28;20221;-63
2021/05/27 01:23:20;;;;;;;4.17;3.13;;;9.10;99.90;;;10.01;99.60;97969.69;5228172;28;20203;-63
2021/05/27 01:25:55;;;;;;;3.55;3.30;;;9.10;99.90;;;9.99;100.00;97980.63;5228824;28;20223;-63
2021/05/27 01:28:31;;;;;;;3.45;3.25;;;9.10;99.90;;;9.99;99.86;97978.06;5227488;28;20572;-63
2021/05/27 01:31:08;;;;;;;3.40;3.20;;;9.10;99.90;;;9.92;100.00;97985.31;5235355;28;20200;-63
2021/05/27 01:33:41;;;;;;;3.10;2.90;;;9.10;99.90;;;9.89;100.00;97985.13;5230241;28;20626;-63
2021/05/27 01:36:13;;;;;;;3.23;3.03;;;9.10;99.90;;;9.91;100.00;97982.69;5227535;28;20209;-63
2021/05/27 01:38:46;;;;;;;3.30;3.10;;;9.10;99.90;;;9.93;100.00;97991.34;5222621;28;20207;-63
2021/05/27 01:41:19;;;;;;;3.50;3.30;;;9.10;99.90;;;9.93;100.00;97991.34;5221222;28;20205;-63
2021/05/27 01:43:52;;;;;;;3.43;3.13;;;9.00;99.90;;;9.88;100.00;97985.94;5237065;28;20212;-63
2021/05/27 01:46:24;;;;;;;3.27;3.07;;;9.00;99.90;;;9.89;100.00;97985.13;5236727;28;20745;-63
2021/05/27 01:48:58;;;;;;;3.50;3.30;;;9.00;99.90;;;9.86;100.00;97987.50;5245559;28;20718;-63
2021/05/27 01:51:31;;;;;;;4.15;3.85;;;9.00;99.90;;;9.87;100.00;97991.84;5225409;28;20203;-63
2021/05/27 01:54:04;;;;;;;3.60;3.30;;;9.00;99.90;;;9.87;100.00;97986.72;5242970;28;20200;-63
2021/05/27 01:56:38;;;;;;;3.20;3.00;;;9.00;99.90;;;9.91;100.00;97991.22;5228234;28;20194;-63
2021/05/27 01:59:11;;;;;;;3.50;3.30;;;9.00;99.90;;;9.92;100.00;97990.41;5240162;28;20193;-63
2021/05/27 02:01:44;;;;;;;3.30;3.10;;;9.00;99.90;;;9.93;100.00;97984.56;5222531;28;20203;-63
2021/05/27 02:04:17;;;;;;;3.30;3.10;;;9.00;99.90;;;9.89;100.00;97995.34;5242559;28;20245;-63
2021/05/27 02:06:49;;;;;;;3.83;3.53;;;9.00;99.90;;;9.86;100.00;97997.72;5243541;28;20216;-63
2021/05/27 02:09:23;;;;;;;3.58;3.38;;;9.00;99.90;;;9.87;100.00;97993.47;5245149;28;20192;-63
2021/05/27 02:11:55;;;;;;;3.35;3.08;;;9.00;99.90;;;9.86;100.00;97997.72;5234150;28;20196;-63
2021/05/27 02:14:28;;;;;;;3.83;3.63;;;9.00;99.90;;;9.89;100.00;97997.91;5242889;28;20220;-63
2021/05/27 02:17:00;;;;;;;4.40;3.17;;;9.00;99.90;;;9.86;100.00;98010.47;5243696;28;20196;-63
2021/05/27 02:19:34;;;;;;;3.03;2.83;;;9.00;99.90;;;9.86;100.00;97997.72;5245122;28;20283;-63
2021/05/27 02:22:06;;;;;;;3.63;2.73;;;9.00;99.90;;;9.87;100.00;98001.13;5225485;28;20640;-63
2021/05/27 02:24:40;;;;;;;3.60;3.40;;;9.00;99.90;;;9.91;100.00;98004.00;5239965;22;20225;-61
2021/05/27 02:27:12;;;;;;;3.78;3.58;;;9.00;99.90;;;9.92;100.00;98003.19;5222752;28;20282;-60
2021/05/27 02:29:45;;;;;;;4.07;3.80;;;9.10;99.90;;;9.91;100.00;98004.00;5232725;28;20193;-61
2021/05/27 02:32:18;;;;;;;3.58;3.33;;;9.00;99.90;;;9.92;100.00;98010.84;5234596;28;20204;-60
2021/05/27 02:34:51;;;;;;;3.70;3.40;;;9.00;99.90;;;9.95;100.00;98016.94;5217180;28;20209;-60
2021/05/27 02:37:23;;;;;;;3.92;3.72;;;9.00;99.90;;;9.95;100.00;97996.50;5214317;28;20192;-61
2021/05/27 02:39:56;;;;;;;3.72;3.45;;;9.10;99.90;;;9.98;100.00;97996.69;5209595;28;20201;-61
2021/05/27 02:42:29;;;;;;;3.40;3.20;;;9.10;99.90;;;10.00;100.00;98008.78;5207650;28;20851;-61
2021/05/27 02:45:02;;;;;;;3.42;3.22;;;9.10;99.90;;;9.97;100.00;98011.16;5213137;28;20217;-60
2021/05/27 02:47:34;;;;;;;3.83;3.53;;;9.10;99.90;;;9.98;100.00;98006.91;5207635;28;20697;-61
2021/05/27 02:50:09;;;;;;;3.60;3.40;;;9.00;99.90;;;9.93;100.00;98012.63;5209500;28;20197;-61
2021/05/27 02:52:42;;;;;;;3.67;3.37;;;9.00;99.90;;;9.91;100.00;98014.19;5221222;28;20192;-61
2021/05/27 02:55:15;;;;;;;3.90;3.60;;;9.00;99.90;;;9.97;100.00;98005.16;5209102;28;20217;-61
2021/05/27 02:57:48;;;;;;;4.03;3.67;;;9.10;99.90;;;9.85;100.00;98008.72;5204927;28;20190;-61
2021/05/27 03:00:21;;;;;;;3.90;3.67;;;9.00;99.90;;;9.92;100.00;98015.97;5210540;28;20198;-60
2021/05/27 03:02:54;;;;;;;3.85;3.65;;;9.00;99.90;;;9.95;100.00;98006.72;5218630;28;20193;-61
2021/05/27 03:05:26;;;;;;;3.85;3.65;;;9.00;99.90;;;9.98;100.00;98012.03;5214780;28;20228;-61
2021/05/27 03:08:00;;;;;;;3.80;3.50;;;9.00;99.90;;;9.95;100.00;98004.19;5218435;28;20217;-61
2021/05/27 03:10:33;;;;;;;3.78;3.58;;;9.00;99.90;;;9.93;100.00;98004.97;5204950;28;20225;-61
2021/05/27 03:13:07;;;;;;;4.00;3.70;;;9.00;99.90;;;9.95;100.00;98009.28;5205461;28;20212;-61
2021/05/27 03:15:40;;;;;;;3.87;3.60;;;9.00;99.90;;;9.94;100.00;98003.31;5210790;28;20217;-61
2021/05/27 03:18:12;;;;;;;3.90;3.70;;;8.90;99.90;;;9.99;100.00;98008.69;5205868;28;20189;-61
2021/05/27 03:20:45;;;;;;;4.22;3.92;;;9.00;99.90;;;9.98;100.00;98009.47;5216486;28;20193;-61
2021/05/27 03:23:18;;;;;;;4.15;3.85;;;9.00;99.90;;;9.96;100.00;98001.72;5215671;28;20202;-61
2021/05/27 03:25:51;;;;;;;3.63;3.42;;;9.00;99.90;;;9.98;100.00;98004.38;5214508;28;20689;-61
2021/05/27 03:28:24;;;;;;;5.55;4.00;;;9.00;99.90;;;9.98;100.00;97999.25;5206908;28;20204;-61
2021/05/27 03:30:57;;;;;;;4.25;3.85;;;9.00;99.90;;;10.03;100.00;98002.97;5212697;28;20190;-61
2021/05/27 03:33:29;;;;;;;3.95;3.75;;;9.00;99.90;;;9.93;100.00;98010.09;5209728;28;20197;-61
2021/05/27 03:36:02;;;;;;;3.63;3.43;;;9.00;99.90;;;9.93;100.00;98002.41;5215875;28;20257;-61
2021/05/27 03:38:35;;;;;;;3.40;3.20;;;9.00;99.90;;;9.95;100.00;97997.41;5204402;28;20194;-61
2021/05/27 03:41:08;;;;;;;4.88;4.47;;;8.90;99.90;;;9.90;100.00;98002.22;5213125;28;20206;-61
2021/05/27 03:43:41;;;;;;;3.72;3.42;;;8.90;99.90;;;9.90;100.00;97996.22;5214821;28;20675;-61
2021/05/27 03:46:14;;;;;;;3.87;3.67;;;9.00;99.90;;;9.89;100.00;97995.34;5222784;28;20224;-61
2021/05/27 03:48:46;;;;;;;4.10;3.90;;;8.90;99.90;;;9.90;100.00;97999.69;5212086;28;20200;-61
2021/05/27 03:51:20;;;;;;;3.90;3.60;;;9.00;99.90;;;9.84;100.00;97995.84;5218678;28;20213;-61
2021/05/27 03:53:52;;;;;;;4.50;4.10;;;8.90;99.90;;;9.83;100.00;97994.97;5211734;28;20466;-61
2021/05/27 03:56:26;;;;;;;4.00;3.80;;;8.90;99.90;;;9.83;100.00;97994.97;5204633;28;20200;-61
2021/05/27 04:02:01;;;;;;;4.68;4.35;;;8.90;99.90;;;9.95;100.00;97999.94;5163717;28;20249;-61
2021/05/27 04:07:26;;;;;;;4.10;3.83;;;9.00;99.90;;;9.97;100.00;98002.59;5212737;28;20301;-61
2021/05/27 04:09:58;;;;;;;3.58;3.35;;;9.00;99.90;;;10.01;100.00;98013.09;5208983;28;20209;-61
2021/05/27 04:12:45;;;;;;;4.33;3.73;;;9.10;99.90;;;10.03;100.00;98014.06;5209458;28;20240;-61
2021/05/27 04:15:21;;;;;;;4.37;3.97;;;9.10;99.90;;;9.97;99.66;98006.03;5211700;28;20259;-61
2021/05/27 04:18:00;;;;;;;4.47;4.15;;;9.10;99.90;;;10.12;100.00;98012.06;5209910;28;20197;-61
2021/05/27 04:20:35;;;;;;;4.05;3.85;;;9.10;99.90;;;10.19;100.00;98005.69;5215601;28;20196;-61
2021/05/27 04:23:12;;;;;;;4.53;4.22;;;9.10;99.90;;;10.30;100.00;98014.00;5216973;28;20201;-61
2021/05/27 04:25:44;;;;;;;5.13;4.65;;;9.30;99.90;;;10.40;98.59;98016.34;5226237;28;20221;-61
2021/05/27 04:28:18;;;;;;;4.47;4.18;;;9.20;99.90;;;10.40;98.06;98013.78;5218112;28;20301;-61
2021/05/27 04:33:53;;;;;;;4.03;3.72;;;9.20;99.90;;;10.29;98.13;98018.25;5216624;28;20216;-60
2021/05/27 04:36:26;;;;;;;4.00;3.70;;;9.20;99.90;;;10.36;99.65;98025.50;5217025;28;20198;-61
2021/05/27 04:38:59;;;;;;;4.35;3.80;;;9.30;99.90;;;10.40;99.44;98030.81;5209796;28;20212;-61
2021/05/27 04:41:32;;;;;;;4.10;3.90;;;9.40;99.90;;;10.50;100.00;98033.09;5215611;28;20201;-61
2021/05/27 04:44:06;;;;;;;4.18;3.90;;;9.50;99.90;;;10.60;99.96;98036.31;5209415;28;20198;-61
2021/05/27 04:46:38;;;;;;;3.53;3.30;;;9.50;99.90;;;10.56;97.66;98044.59;5208326;28;20228;-61
2021/05/27 04:49:11;;;;;;;4.70;4.18;;;9.50;99.90;;;10.56;96.50;98051.38;5216298;28;20205;-66
2021/05/27 04:51:43;;;;;;;4.28;3.92;;;9.40;99.90;;;10.53;97.80;98046.97;5215232;28;20678;-61
2021/05/27 04:54:16;;;;;;;3.83;3.63;;;9.40;99.90;;;10.59;97.44;98043.91;5218195;28;20559;-61
2021/05/27 04:56:48;;;;;;;4.47;4.18;;;9.50;99.90;;;10.51;94.08;98040.88;5210071;28;20565;-61
2021/05/27 04:59:22;;;;;;;4.15;3.85;;;9.40;99.90;;;10.73;96.39;98048.16;5206986;28;20204;-61
2021/05/27 05:01:54;;;;;;;3.95;3.65;;;9.50;99.90;;;11.04;96.32;98044.81;5216248;28;20665;-61
2021/05/27 05:04:27;;;;;;;3.97;3.72;;;9.80;99.90;;;11.38;95.87;98049.31;5207056;28;20221;-61
2021/05/27 05:06:59;;;;;;;3.80;3.50;;;10.00;99.90;;;11.56;91.67;98055.50;5207919;28;20615;-57
2021/05/27 05:09:32;;;;;;;3.50;3.30;;;10.20;99.90;;;11.86;90.67;98050.34;5220647;28;20608;-62
2021/05/27 05:12:06;;;;;;;3.17;2.97;;;10.30;99.90;;;12.02;86.04;98050.38;5214032;28;20205;-59
2021/05/27 05:14:39;;;;;;;3.13;2.85;;;10.50;99.90;;;12.28;85.07;98054.34;5209587;28;20313;-57
2021/05/27 05:17:12;;;;;;;2.85;2.75;;;10.80;99.90;;;12.71;85.10;98066.88;5205037;28;20285;-61
2021/05/27 05:19:44;;;;;;;2.65;2.45;;;11.10;99.90;;;12.72;82.06;98067.75;5220610;28;20673;-61
2021/05/27 05:22:17;;;;;;;2.65;2.55;;;11.10;99.90;;;12.55;83.03;98070.28;5215968;28;20201;-61
2021/05/27 05:24:49;;;;;;;2.92;2.83;;;11.00;99.90;;;12.38;83.41;98071.97;5213858;28;20236;-61
2021/05/27 05:27:22;;;;;;;2.70;2.50;;;11.00;99.90;;;12.27;83.11;98074.75;5212529;28;20225;-60
2021/05/27 05:29:55;;;;;;;3.55;2.80;;;10.90;99.90;;;12.15;83.40;98072.41;5212555;28;20194;-60
2021/05/27 05:32:28;;;;;;;2.90;2.70;;;10.80;99.90;;;12.17;82.17;98074.25;5214997;28;20198;-61
2021/05/27 05:35:00;;;;;;;3.20;2.90;;;10.80;99.90;;;12.15;81.56;98087.78;5206241;28;20236;-60
2021/05/27 05:37:34;;;;;;;2.80;2.70;;;10.90;99.90;;;12.14;81.88;98081.78;5205939;28;20289;-61
2021/05/27 05:40:09;;;;;;;2.80;2.70;;;10.90;99.90;;;12.17;83.63;98086.19;5214618;28;20220;-61
2021/05/27 05:42:43;;;;;;;3.30;3.00;;;10.90;99.90;;;12.17;83.44;98087.06;5218924;28;20204;-60
2021/05/27 05:45:18;;;;;;;2.85;2.70;;;10.90;99.90;;;12.15;83.71;98086.09;5219313;28;20220;-59
2021/05/27 05:47:52;;;;;;;2.85;2.65;;;10.80;99.90;;;12.07;82.46;98084.81;5219319;28;20217;-59
2021/05/27 05:53:18;;;;;;;3.05;2.83;;;10.70;99.90;;;12.01;84.26;98094.72;5223715;28;20228;-61
2021/05/27 05:55:53;;;;;;;2.97;2.78;;;10.80;99.90;;;12.05;84.59;98093.22;5204190;28;20239;-59
2021/05/27 05:58:26;;;;;;;3.35;3.17;;;10.80;99.90;;;12.07;82.50;98095.03;5210754;28;20676;-60
2021/05/27 06:00:59;;;;;;;3.67;3.30;;;10.70;99.90;;;12.02;83.59;98087.91;5214864;28;20197;-61
2021/05/27 06:03:33;;;;;;;3.13;2.92;;;10.70;99.90;;;11.90;83.93;98090.69;5208602;28;20206;-61
2021/05/27 06:06:10;;;;;;;3.30;3.00;;;10.60;99.90;;;11.76;83.79;98094.13;5211115;28;20213;-61
2021/05/27 06:08:43;;;;;;;3.25;2.95;;;10.60;99.90;;;11.70;84.20;98097.22;5208675;28;20212;-61
2021/05/27 06:11:15;;;;;;;3.30;3.10;;;10.50;99.90;;;11.81;83.31;98095.25;5208228;28;20232;-58
2021/05/27 06:13:48;;;;;;;3.40;3.10;;;10.60;99.90;;;12.13;82.87;98100.53;5216122;28;20194;-60
2021/05/27 06:16:22;;;;;;;3.10;3.00;;;10.80;99.90;;;12.34;82.42;98102.50;5205118;28;20217;-61
2021/05/27 06:18:54;;;;;;;3.03;2.83;;;11.00;99.90;;;12.34;80.32;98094.81;5205622;28;20560;-60
2021/05/27 06:21:27;;;;;;;3.38;3.13;;;11.10;99.90;;;12.61;79.94;98098.81;5207016;28;20596;-60
2021/05/27 06:24:00;;;;;;;3.50;2.90;;;11.20;99.90;;;13.03;76.91;98096.72;5215733;28;20197;-60
2021/05/27 06:26:33;;;;;;;2.90;2.80;;;11.60;99.90;;;13.30;77.20;98096.38;5203975;28;20589;-61
2021/05/27 06:29:06;;;;;;;2.70;2.50;;;11.80;99.90;;;13.30;77.51;98114.34;5218484;28;20711;-60
2021/05/27 06:31:39;;;;;;;2.38;2.28;;;11.90;99.90;;;13.38;75.47;98110.50;5204453;28;20193;-59
2021/05/27 06:34:12;;;;;;;3.13;2.90;;;11.90;99.90;;;13.13;75.83;98103.19;5222325;28;20307;-59
2021/05/27 06:36:45;;;;;;;2.90;2.70;;;11.80;99.90;;;13.11;77.74;98114.22;5212467;28;20195;-61
2021/05/27 06:39:17;;;;;;;2.75;2.55;;;11.70;99.90;;;13.01;76.56;98118.84;5211493;28;20200;-59
2021/05/27 06:41:50;;;;;;;3.28;3.08;;;11.70;99.90;;;12.97;77.01;98116.94;5218589;28;20203;-61
2021/05/27 06:44:23;;;;;;;3.03;2.83;;;11.70;99.90;;;13.00;75.91;98114.53;5207557;28;20701;-60
2021/05/27 06:46:57;;;;;;;3.30;3.10;;;11.60;99.90;;;12.99;76.35;98124.72;5208513;28;20194;-61
2021/05/27 06:49:30;;;;;;;2.67;2.45;;;11.70;99.90;;;12.99;75.40;98119.56;5209601;28;20199;-60
2021/05/27 06:52:04;;;;;;;2.70;2.50;;;11.70;99.90;;;13.02;72.15;98118.06;5204134;28;20205;-64
2021/05/27 06:54:36;;;;;;;3.28;3.08;;;11.60;99.90;;;13.12;73.31;98111.72;5208363;28;20213;-64
2021/05/27 06:57:09;;;;;;;3.20;2.90;;;11.70;99.90;;;13.05;74.51;98115.66;5214996;28;20609;-58
2021/05/27 06:59:41;;;;;;;3.50;2.80;;;11.70;99.90;;;13.00;75.09;98111.97;5206733;28;20208;-61
2021/05/27 07:02:17;;;;;;;3.25;3.05;;;11.80;99.90;;;12.99;75.85;98106.75;5216683;28;20193;-60
2021/05/27 07:04:49;;;;;;;3.05;2.85;;;11.80;99.90;;;13.15;74.59;98105.84;5205989;28;20224;-59
2021/05/27 07:07:24;;;;;;;3.38;3.03;;;11.90;99.90;;;14.05;73.21;98107.78;5206089;28;20225;-59
2021/05/27 07:09:59;;;;;;;2.88;2.60;;;12.70;99.90;;;15.21;68.88;98106.13;5208465;28;20197;-60
2021/05/27 07:12:33;;;;;;;2.85;2.65;;;13.80;99.90;;;15.41;66.02;98099.25;5211266;28;20195;-61
2021/05/27 07:15:08;;;;;;;2.70;2.60;;;13.90;99.90;;;15.28;64.92;98098.75;5212108;28;20216;-61
2021/05/27 07:17:41;;;;;;;3.35;2.78;;;13.70;99.90;;;15.29;67.11;98102.19;5202638;28;20688;-61
2021/05/27 07:20:16;;;;;;;3.28;2.38;;;13.90;99.90;;;15.58;65.50;98099.97;5203437;28;20193;-61
2021/05/27 07:22:50;;;;;;;2.67;2.47;;;14.00;99.90;;;16.14;63.82;98097.13;5210526;28;20229;-61
2021/05/27 07:25:24;;;;;;;2.17;2.08;;;14.60;99.90;;;17.05;60.80;98100.50;5203801;28;20233;-60
2021/05/27 07:27:57;;;;;;;2.60;2.40;;;15.50;99.90;;;17.74;54.85;98093.41;5204617;28;20227;-60
2021/05/27 07:30:32;;;;;;;2.13;2.03;;;16.00;99.90;;;18.44;53.39;98094.72;5206163;28;20225;-61
2021/05/27 07:33:05;;;;;;;2.22;2.13;;;16.70;99.90;;;18.66;53.47;98095.38;5214745;28;20300;-60
2021/05/27 07:35:38;;;;;;;2.40;2.20;;;16.50;99.90;;;18.74;53.17;98099.06;5211861;28;20216;-60
2021/05/27 07:38:11;;;;;;;3.00;2.00;;;16.60;99.90;;;18.41;52.82;98094.66;5214342;28;20277;-60
2021/05/27 07:40:46;;;;;;;3.67;2.15;;;16.40;99.90;;;17.54;57.12;98094.41;5216619;28;20289;-60
2021/05/27 07:43:18;;;;;;;1.85;1.75;;;15.60;99.90;;;16.88;57.86;98097.31;5221668;28;20189;-61
2021/05/27 07:45:51;;;;;;;1.98;1.88;;;14.90;99.90;;;16.25;58.51;98091.47;5210898;28;20218;-61
2021/05/27 07:48:24;;;;;;;2.30;2.10;;;14.40;99.90;;;16.17;59.53;98092.06;5220780;28;20219;-60
2021/05/27 07:50:57;;;;;;;2.53;2.20;;;14.20;99.90;;;15.96;59.75;98088.63;5213725;28;20228;-61
2021/05/27 07:53:30;;;;;;;3.22;2.80;;;14.10;99.90;;;16.36;58.84;98085.03;5214929;28;20197;-61
2021/05/27 07:56:03;;;;;;;3.08;2.78;;;14.50;99.90;;;17.32;56.45;98092.84;5206980;28;20224;-61
2021/05/27 07:58:35;;;;;;;2.70;2.50;;;15.30;99.90;;;17.56;53.28;98093.66;5207647;28;20646;-61
2021/05/27 08:01:09;;;;;;;2.50;2.38;;;15.40;99.90;;;17.24;53.40;98089.09;5206932;28;20208;-61
2021/05/27 08:03:42;;;;;;;2.42;2.22;;;15.20;99.90;;;16.90;54.16;98095.66;5216458;28;20190;-60
2021/05/27 08:06:15;;;;;;;3.53;2.30;;;14.80;99.90;;;16.52;55.32;98095.13;5211550;28;20213;-61
2021/05/27 08:08:48;;;;;;;2.70;2.50;;;14.50;99.90;;;16.07;56.24;98089.94;5216357;28;20683;-61
2021/05/27 08:11:20;;;;;;;3.40;2.70;;;14.20;99.90;;;15.84;56.58;98095.91;5216285;28;20200;-59
2021/05/27 08:13:53;;;;;;;2.80;2.42;;;14.00;99.90;;;15.44;59.09;98100.25;5210065;28;20578;-61
2021/05/27 08:16:26;;;;;;;2.30;2.15;;;13.80;99.90;;;15.28;60.99;98098.75;5210354;28;20197;-60
2021/05/27 08:18:59;;;;;;;3.25;2.63;;;13.70;99.90;;;15.69;59.03;98103.91;5218306;28;20571;-61
2021/05/27 08:21:33;;;;;;;2.47;2.38;;;14.20;99.90;;;16.44;55.72;98094.81;5209921;28;20193;-62
2021/05/27 08:24:07;;;;;;;2.40;2.20;;;14.90;99.90;;;16.99;56.03;98097.69;5230894;23;20216;-56
2021/05/27 08:26:40;;;;;;;2.28;2.10;;;15.90;99.90;;;17.44;54.44;98098.41;5219516;28;20206;-58
2021/05/27 08:29:13;;;;;;;2.40;2.20;;;16.40;99.90;;;18.00;52.62;98091.66;5224752;28;20216;-59
2021/05/27 08:31:45;;;;;;;2.50;2.30;;;17.10;99.90;;;17.92;50.95;98100.91;5226278;28;20205;-59
2021/05/27 08:34:19;;;;;;;2.42;2.22;;;16.40;99.90;;;17.72;51.07;98095.03;5222063;28;20237;-61
2021/05/27 08:36:52;;;;;;;2.00;1.90;;;16.10;99.90;;;17.51;51.77;98092.63;5206054;28;20296;-58
2021/05/27 08:39:24;;;;;;;2.33;2.22;;;16.00;99.90;;;17.66;52.38;98094.84;5205938;28;20196;-60
2021/05/27 08:41:57;;;;;;;2.78;2.50;;;16.10;99.90;;;17.24;50.95;98102.03;5199249;28;20198;-61
2021/05/27 08:44:30;;;;;;;2.05;1.95;;;15.80;99.90;;;16.76;53.41;98094.25;5206310;28;20308;-59
2021/05/27 08:47:03;;;;;;;2.78;2.35;;;15.40;99.90;;;16.87;54.25;98088.69;5206449;28;20299;-62
2021/05/27 08:49:37;;;;;;;2.47;2.28;;;15.60;99.90;;;17.18;52.23;98088.91;5194614;28;20236;-66
2021/05/27 08:52:10;;;;;;;2.40;2.20;;;15.90;99.90;;;17.17;53.41;98092.28;5205223;28;20204;-64
2021/05/27 08:54:43;;;;;;;2.20;2.00;;;15.80;99.90;;;17.24;51.06;98092.56;5206189;28;20240;-55
2021/05/27 08:57:15;;;;;;;2.35;2.00;;;15.80;99.90;;;17.27;49.25;98090.09;5205092;28;20204;-58
2021/05/27 08:59:48;;;;;;;2.30;2.10;;;15.60;99.90;;;17.40;49.86;98095.66;5205709;28;20198;-58
2021/05/27 09:02:20;;;;;;;2.67;2.00;;;15.90;99.90;;;17.15;50.19;98088.78;5205060;28;20212;-59
2021/05/27 09:04:54;;;;;;;2.08;1.98;;;16.00;99.90;;;17.08;50.54;98093.75;5205505;28;20210;-61
2021/05/27 09:07:41;;;;;;;2.38;2.28;;;15.80;99.90;;;17.09;50.23;98095.50;5204363;28;20210;-59
2021/05/27 09:10:14;;;;;;;3.65;2.20;;;15.70;99.90;;;16.97;49.70;98099.34;5204125;28;20222;-59
2021/05/27 09:12:47;;;;;;;3.38;2.08;;;15.40;99.90;;;16.97;50.92;98099.34;5194615;28;20209;-59
2021/05/27 09:15:22;;;;;;;2.28;2.10;;;15.40;99.90;;;17.05;51.36;98097.91;5205355;28;20224;-60
2021/05/27 09:17:55;;;;;;;2.20;2.10;;;15.70;99.90;;;17.31;51.31;98097.13;5205647;28;20288;-62
2021/05/27 09:20:30;;;;;;;2.38;2.28;;;16.20;99.90;;;17.51;49.94;98097.81;5200999;28;20198;-58
2021/05/27 09:23:15;;;;;;;2.20;2.10;;;16.50;99.50;;;17.74;48.45;98089.91;5205430;28;20243;-61
2021/05/27 09:25:50;;;;;;;2.30;2.10;;;17.10;98.30;;;17.85;48.94;98090.28;5204583;28;20344;-62
2021/05/27 09:28:27;;;;;;;2.42;2.30;;;17.20;98.30;;;18.20;46.39;98100.06;5204221;28;20210;-62
2021/05/27 09:31:03;;;;;;;2.40;2.20;;;17.60;96.90;;;18.04;47.90;98102.13;5203369;28;20313;-62
2021/05/27 09:33:38;;;;;;;3.22;2.30;;;17.20;97.40;;;18.06;47.43;98103.06;5205623;28;20212;-54
2021/05/27 09:36:13;;;;;;;3.15;2.17;;;17.10;97.50;;;18.03;47.00;98096.06;5204432;28;20221;-56
2021/05/27 09:38:48;;;;;;;2.40;2.20;;;17.00;97.10;;;17.93;47.96;98105.22;5204406;28;20324;-59
2021/05/27 09:41:22;;;;;;;2.20;2.00;;;17.00;97.40;;;17.96;46.75;98105.31;5203166;28;20210;-60
2021/05/27 09:44:15;;;;;;;2.38;2.17;;;16.90;97.00;;;17.91;45.87;98106.00;5204571;28;20189;-60
2021/05/27 09:46:49;;;;;;;2.20;2.10;;;16.70;96.10;;;17.78;46.01;98099.56;5203172;28;20202;-60
2021/05/27 09:49:23;;;;;;;2.22;2.00;;;16.60;95.90;;;17.74;44.18;98108.00;5203091;28;20221;-62
2021/05/27 09:52:03;;;;;;;2.20;2.00;;;16.70;94.70;;;17.50;45.69;98110.66;5200820;28;20217;-59
2021/05/27 09:54:52;;;;;;;2.15;1.95;;;16.40;95.80;;;17.58;46.68;98100.59;5204468;28;20231;-60
2021/05/27 09:57:28;;;;;;;2.17;2.08;;;16.30;97.10;;;17.54;46.85;98115.09;5201701;28;20240;-58
2021/05/27 10:00:01;;;;;;;2.45;2.25;;;16.20;97.20;;;17.55;46.73;98112.56;5202517;28;20204;-59
2021/05/27 10:02:35;;;;;;;3.20;2.00;;;16.10;96.80;;;17.46;47.15;98112.28;5198173;28;20206;-58
2021/05/27 10:05:10;;;;;;;2.80;2.00;;;16.00;97.30;;;17.35;48.86;98121.38;5202510;28;20309;-61
2021/05/27 10:07:46;;;;;;;2.80;2.00;;;16.00;98.90;;;17.11;49.43;98119.69;5202005;28;20228;-60
2021/05/27 10:10:41;;;;;;;1.95;1.75;;;15.90;98.50;;;16.94;49.94;98118.22;5203073;28;20202;-61
2021/05/27 10:13:16;;;;;;;2.20;2.10;;;15.80;98.70;;;16.66;49.39;98124.03;5204354;28;20248;-57
2021/05/27 10:15:49;;;;;;;2.25;2.05;;;15.50;98.40;;;16.53;50.88;98127.81;5203795;28;20217;-61
2021/05/27 10:18:23;;;;;;;2.10;2.00;;;15.40;99.60;;;16.56;49.23;98122.78;5204248;28;20198;-59
2021/05/27 10:20:55;;;;;;;2.25;2.05;;;15.40;98.30;;;16.67;49.99;98124.06;5202374;28;20205;-60
2021/05/27 10:23:30;;;;;;;2.95;2.10;;;15.50;99.10;;;16.75;49.69;98123.47;5202608;28;20198;-61
2021/05/27 10:26:03;;;;;;;2.25;2.13;;;15.60;98.30;;;16.60;49.96;98121.22;5201978;28;20228;-63
2021/05/27 10:28:37;;;;;;;3.40;2.40;;;15.50;98.60;;;16.74;49.93;98119.13;5203531;28;20213;-64
2021/05/27 10:31:14;;;;;;;2.17;2.08;;;15.40;98.40;;;16.80;49.60;98116.81;5200698;28;20213;-60
2021/05/27 10:33:47;;;;;;;2.40;2.22;;;15.50;98.90;;;16.73;50.46;98119.97;5200760;28;20206;-60
2021/05/27 10:36:19;;;;;;;2.10;2.00;;;15.50;99.50;;;16.70;51.10;98120.72;5203307;28;20210;-60
2021/05/27 10:38:54;;;;;;;2.10;2.00;;;15.50;99.90;;;16.77;50.23;98132.16;5204662;28;20198;-62
2021/05/27 10:41:54;;;;;;;2.38;2.00;;;15.60;99.30;;;16.93;49.71;98123.31;5202860;28;20204;-60
2021/05/27 10:44:27;;;;;;;2.17;2.03;;;15.80;99.00;;;17.26;48.24;98118.47;5202056;28;20214;-61
2021/05/27 10:47:18;;;;;;;2.97;2.38;;;16.00;97.70;;;17.29;47.39;98121.16;5203524;28;20208;-61
2021/05/27 10:49:56;;;;;;;2.83;1.88;;;16.10;96.80;;;17.17;47.14;98107.78;5201944;28;20222;-60
2021/05/27 10:52:51;;;;;;;2.88;2.55;;;15.90;96.90;;;16.86;47.82;98117.03;5204384;28;20288;-59
2021/05/27 10:55:54;;;;;;;2.17;2.08;;;15.70;97.30;;;16.54;50.90;98123.53;5197285;28;20213;-61
2021/05/27 10:59:05;;;;;;;2.40;2.20;;;15.50;99.30;;;16.36;51.61;98118.56;5197935;28;20204;-59
2021/05/27 11:01:55;;;;;;;2.67;2.47;;;15.30;99.70;;;16.27;52.02;98123.38;5200934;28;20764;-60
2021/05/27 11:04:32;;;;;;;2.45;2.25;;;15.10;99.70;;;16.09;51.87;98124.41;5197653;28;20217;-59